createdAt,value
2018-02-08T04:32:35.028Z,93.40
2018-02-08T04:35:09.256Z,93.50
2018-02-08T04:37:43.059Z,93.60
2018-02-08T04:40:28.835Z,93.60
2018-02-08T04:43:14.644Z,93.50
2018-02-08T04:46:01.169Z,93.50
2018-02-08T04:48:34.998Z,93.50
2018-02-08T04:51:09.504Z,93.40
2018-02-08T04:53:43.263Z,93.40
2018-02-08T04:56:17.141Z,93.50
2018-02-08T04:58:52.508Z,93.50
2018-02-08T05:01:26.295Z,93.40
2018-02-08T05:04:00.046Z,93.30
2018-02-08T05:06:33.823Z,93.40
2018-02-08T05:09:08.521Z,93.40
2018-02-08T05:11:42.290Z,93.40
2018-02-08T05:14:16.002Z,93.40
2018-02-08T05:16:50.633Z,93.30
2018-02-08T05:19:25.590Z,93.50
2018-02-08T05:21:59.392Z,93.50
2018-02-08T05:24:33.176Z,93.60
2018-02-08T05:27:07.696Z,94.10
2018-02-08T05:29:41.592Z,94.10
2018-02-08T05:32:16.120Z,94.30
2018-02-08T05:34:50.843Z,94.40
2018-02-08T05:37:24.567Z,94.50
2018-02-08T05:39:59.521Z,94.60
2018-02-08T05:42:33.125Z,94.50
2018-02-08T05:45:06.828Z,94.40
2018-02-08T05:47:40.635Z,94.50
2018-02-08T05:50:15.215Z,94.20
2018-02-08T05:52:48.966Z,94.50
2018-02-08T05:55:23.270Z,94.30
2018-02-08T05:57:56.936Z,94.40
2018-02-08T06:00:30.981Z,94.30
2018-02-08T06:03:04.769Z,94.00
2018-02-08T06:05:39.488Z,94.30
2018-02-08T06:08:13.214Z,94.30
2018-02-08T06:10:47.080Z,94.20
2018-02-08T06:13:21.623Z,93.30
2018-02-08T06:15:55.607Z,93.30
2018-02-08T06:18:29.214Z,93.30
2018-02-08T06:21:03.808Z,93.30
2018-02-08T06:23:38.297Z,93.10
2018-02-08T06:26:12.156Z,93.10
2018-02-08T06:28:45.733Z,93.00
2018-02-08T06:31:19.510Z,93.10
2018-02-08T06:33:53.364Z,93.40
2018-02-08T06:36:27.147Z,93.80
2018-02-08T06:39:00.755Z,93.60
2018-02-08T06:41:35.498Z,93.00
2018-02-08T06:44:09.339Z,92.90
2018-02-08T06:46:44.502Z,93.50
2018-02-08T06:49:18.258Z,93.50
2018-02-08T06:51:52.055Z,93.50
2018-02-08T06:54:26.615Z,92.80
2018-02-08T06:57:00.475Z,92.80
2018-02-08T06:59:34.746Z,92.90
2018-02-08T07:02:08.622Z,93.00
2018-02-08T07:04:42.508Z,93.20
2018-02-08T07:07:17.259Z,93.30
2018-02-08T07:09:50.900Z,93.20
2018-02-08T07:12:24.827Z,93.30
2018-02-08T07:14:58.622Z,93.00
2018-02-08T07:17:32.411Z,93.00
2018-02-08T07:20:15.211Z,92.80
2018-02-08T07:22:50.215Z,92.80
2018-02-08T07:25:23.877Z,92.90
2018-02-08T07:28:03.154Z,92.80
2018-02-08T07:30:37.837Z,92.70
2018-02-08T07:33:11.768Z,92.70
2018-02-08T07:35:45.488Z,92.60
2018-02-08T07:38:20.103Z,92.40
2018-02-08T07:40:53.862Z,92.40
2018-02-08T07:43:27.624Z,92.40
2018-02-08T07:46:01.475Z,92.10
2018-02-08T07:48:36.251Z,92.10
2018-02-08T07:51:10.183Z,92.10
2018-02-08T07:53:43.955Z,92.20
2018-02-08T07:56:20.788Z,92.20
2018-02-08T07:58:54.687Z,91.90
2018-02-08T08:01:28.375Z,92.00
2018-02-08T08:04:02.091Z,91.90
2018-02-08T08:06:35.915Z,91.80
2018-02-08T08:09:10.011Z,91.90
2018-02-08T08:11:43.671Z,92.10
2018-02-08T08:14:17.487Z,91.80
2018-02-08T08:16:51.157Z,91.50
2018-02-08T08:19:24.970Z,91.50
2018-02-08T08:21:58.781Z,91.80
2018-02-08T08:24:35.318Z,91.40
2018-02-08T08:27:09.060Z,91.40
2018-02-08T08:29:42.879Z,91.60
2018-02-08T08:32:16.695Z,91.70
2018-02-08T08:34:50.419Z,91.00
2018-02-08T08:37:24.200Z,91.00
2018-02-08T08:39:58.048Z,91.40
2018-02-08T08:42:31.815Z,91.30
2018-02-08T08:45:06.639Z,91.80
2018-02-08T08:47:40.380Z,91.80
2018-02-08T08:50:14.175Z,91.80
2018-02-08T08:52:47.901Z,91.30
2018-02-08T08:55:21.572Z,91.40
2018-02-08T08:57:55.434Z,91.50
2018-02-08T09:00:29.293Z,91.40
2018-02-08T09:03:03.019Z,91.20
2018-02-08T09:05:36.912Z,90.70
2018-02-08T09:08:11.990Z,90.90
2018-02-08T09:10:45.703Z,91.20
2018-02-08T09:13:19.409Z,90.70
2018-02-08T09:15:53.219Z,91.10
2018-02-08T09:18:28.947Z,91.10
2018-02-08T09:21:02.793Z,91.10
2018-02-08T09:23:37.404Z,91.30
2018-02-08T09:26:12.023Z,90.50
2018-02-08T09:28:45.879Z,90.50
2018-02-08T09:31:19.719Z,90.40
2018-02-08T09:33:53.517Z,90.60
2018-02-08T09:36:29.102Z,89.90
2018-02-08T09:39:02.827Z,89.90
2018-02-08T09:41:37.204Z,90.00
2018-02-08T09:44:11.701Z,89.70
2018-02-08T09:46:46.270Z,89.90
2018-02-08T09:49:21.109Z,90.00
2018-02-08T09:51:54.930Z,90.00
2018-02-08T09:54:29.531Z,90.10
2018-02-08T09:57:03.411Z,90.10
2018-02-08T09:59:37.074Z,90.10
2018-02-08T10:02:10.867Z,90.00
2018-02-08T10:04:44.670Z,89.60
2018-02-08T10:07:19.264Z,88.00
2018-02-08T10:09:53.008Z,88.00
2018-02-08T10:12:27.579Z,87.50
2018-02-08T10:15:01.411Z,87.50
2018-02-08T10:17:35.131Z,88.30
2018-02-08T10:20:08.936Z,87.20
2018-02-08T10:22:43.559Z,86.20
2018-02-08T10:25:17.416Z,86.20
2018-02-08T10:27:51.149Z,86.20
2018-02-08T10:30:25.796Z,87.00
2018-02-08T10:32:59.591Z,87.00
2018-02-08T10:35:33.435Z,85.70
2018-02-08T10:38:07.214Z,85.50
2018-02-08T10:40:42.040Z,85.20
2018-02-08T10:43:15.831Z,85.10
2018-02-08T10:45:49.655Z,84.40
2018-02-08T10:48:23.351Z,85.20
2018-02-08T10:50:57.274Z,85.40
2018-02-08T10:53:31.791Z,84.50
2018-02-08T10:56:05.523Z,84.10
2018-02-08T10:58:40.160Z,83.10
2018-02-08T11:01:15.640Z,83.30
2018-02-08T11:03:50.167Z,84.00
2018-02-08T11:06:25.053Z,84.00
2018-02-08T11:08:58.823Z,84.10
2018-02-08T11:11:32.558Z,84.00
2018-02-08T11:14:06.331Z,83.70
2018-02-08T11:16:40.170Z,83.70
2018-02-08T11:19:13.918Z,82.90
2018-02-08T11:21:48.359Z,81.90
2018-02-08T11:24:22.059Z,81.90
2018-02-08T11:26:57.811Z,82.90
2018-02-08T11:29:32.308Z,83.50
2018-02-08T11:32:06.139Z,83.30
2018-02-08T11:34:41.651Z,83.00
2018-02-08T11:37:15.494Z,83.10
2018-02-08T11:39:49.348Z,83.80
2018-02-08T11:42:23.101Z,84.50
2018-02-08T11:44:56.841Z,85.00
2018-02-08T11:47:30.647Z,85.50
2018-02-08T11:50:05.308Z,86.50
2018-02-08T11:52:38.964Z,86.30
2018-02-08T11:55:14.651Z,86.50
2018-02-08T11:57:50.331Z,86.60
2018-02-08T12:00:24.958Z,87.10
2018-02-08T12:02:59.511Z,85.80
2018-02-08T12:05:33.412Z,85.80
2018-02-08T12:08:07.313Z,86.00
2018-02-08T12:10:41.738Z,86.60
2018-02-08T12:13:15.569Z,86.60
2018-02-08T12:15:49.408Z,85.80
2018-02-08T12:18:23.246Z,85.60
2018-02-08T12:20:56.971Z,86.00
2018-02-08T12:23:31.607Z,84.70
2018-02-08T12:26:05.362Z,85.40
2018-02-08T12:28:39.265Z,84.50
2018-02-08T12:31:13.950Z,84.00
2018-02-08T12:33:47.776Z,84.00
2018-02-08T12:36:23.556Z,84.30
2018-02-08T12:38:57.327Z,84.80
2018-02-08T12:41:31.119Z,84.00
2018-02-08T12:44:04.971Z,83.60
2018-02-08T12:46:40.130Z,85.10
2018-02-08T12:49:13.895Z,85.00
2018-02-08T12:51:47.684Z,84.90
2018-02-08T12:54:22.381Z,85.70
2018-02-08T12:56:58.926Z,85.00
2018-02-08T12:59:32.780Z,85.00
2018-02-08T13:02:06.683Z,85.50
2018-02-08T13:04:40.370Z,85.10
2018-02-08T13:07:14.184Z,84.50
2018-02-08T13:09:48.028Z,84.80
2018-02-08T13:12:22.622Z,83.80
2018-02-08T13:14:56.290Z,83.80
2018-02-08T13:17:30.150Z,83.20
2018-02-08T13:20:04.743Z,83.50
2018-02-08T13:22:38.528Z,83.50
2018-02-08T13:25:12.291Z,82.20
2018-02-08T13:27:45.982Z,83.30
2018-02-08T13:30:19.776Z,83.00
2018-02-08T13:32:53.526Z,81.90
2018-02-08T13:35:29.101Z,82.40
2018-02-08T13:38:03.215Z,82.90
2018-02-08T13:40:46.675Z,82.60
2018-02-08T13:43:21.178Z,83.10
2018-02-08T13:45:55.032Z,83.00
2018-02-08T13:48:42.531Z,83.10
2018-02-08T13:51:22.185Z,82.10
2018-02-08T13:54:07.068Z,82.80
2018-02-08T13:56:43.744Z,82.70
2018-02-08T13:59:23.380Z,82.50
2018-02-08T14:01:58.895Z,82.50
2018-02-08T14:04:33.395Z,82.60
2018-02-08T14:07:07.129Z,82.60
2018-02-08T14:09:40.825Z,82.20
2018-02-08T14:12:14.640Z,82.10
2018-02-08T14:14:49.156Z,83.10
2018-02-08T14:17:23.751Z,82.50
2018-02-08T14:19:58.607Z,82.20
2018-02-08T14:22:32.329Z,82.10
2018-02-08T14:25:06.140Z,81.80
2018-02-08T14:27:39.982Z,82.00
2018-02-08T14:30:14.641Z,82.10
2018-02-08T14:32:48.385Z,82.10
2018-02-08T14:35:24.190Z,82.90
2018-02-08T14:37:58.047Z,82.90
2018-02-08T14:40:31.857Z,82.90
2018-02-08T14:43:08.378Z,82.60
2018-02-08T14:45:41.962Z,82.60
2018-02-08T14:48:16.618Z,82.60
2018-02-08T14:50:50.455Z,83.20
2018-02-08T14:53:25.129Z,82.90
2018-02-08T14:55:59.551Z,83.10
2018-02-08T14:58:33.317Z,83.10
2018-02-08T15:01:07.116Z,83.10
2018-02-08T15:03:41.725Z,82.80
2018-02-08T15:06:15.494Z,82.80
2018-02-08T15:08:49.228Z,83.50
2018-02-08T15:11:23.327Z,84.60
2018-02-08T15:13:57.197Z,83.60
2018-02-08T15:16:31.051Z,83.30
2018-02-08T15:19:04.926Z,84.10
2018-02-08T15:21:40.732Z,85.20
2018-02-08T15:24:14.518Z,84.40
2018-02-08T15:26:48.298Z,84.30
2018-02-08T15:29:21.975Z,84.60
2018-02-08T15:31:57.753Z,85.10
2018-02-08T15:34:31.572Z,85.10
2018-02-08T15:37:06.095Z,85.50
2018-02-08T15:39:39.939Z,85.50
2018-02-08T15:42:13.795Z,85.90
2018-02-08T15:44:47.597Z,85.50
2018-02-08T15:47:21.447Z,85.80
2018-02-08T15:49:57.370Z,85.70
2018-02-08T15:52:31.268Z,85.70
2018-02-08T15:55:05.151Z,85.80
2018-02-08T15:57:38.921Z,85.50
2018-02-08T16:00:12.715Z,85.60
2018-02-08T16:02:46.825Z,85.20
2018-02-08T16:05:21.337Z,84.90
2018-02-08T16:07:54.999Z,84.90
2018-02-08T16:10:29.087Z,85.00
2018-02-08T16:13:02.847Z,85.40
2018-02-08T16:15:36.708Z,85.40
2018-02-08T16:18:10.448Z,85.50
2018-02-08T16:20:44.329Z,85.30
2018-02-08T16:23:18.877Z,86.20
2018-02-08T16:25:52.740Z,86.10
2018-02-08T16:28:26.463Z,85.50
2018-02-08T16:31:00.282Z,85.40
2018-02-08T16:33:34.824Z,86.10
2018-02-08T16:36:08.557Z,85.90
2018-02-08T16:38:42.287Z,86.60
2018-02-08T16:41:16.108Z,87.00
2018-02-08T16:43:49.908Z,87.00
2018-02-08T16:46:23.668Z,87.60
2018-02-08T16:48:57.528Z,87.80
2018-02-08T16:51:32.407Z,87.90
2018-02-08T16:54:06.475Z,87.50
2018-02-08T16:56:40.206Z,87.60
2018-02-08T16:59:14.247Z,87.80
2018-02-08T17:01:48.867Z,88.70
2018-02-08T17:04:22.718Z,88.70
2018-02-08T17:06:56.487Z,88.90
2018-02-08T17:09:30.293Z,89.00
2018-02-08T17:12:04.828Z,89.30
2018-02-08T17:14:38.615Z,89.30
2018-02-08T17:17:12.372Z,89.40
2018-02-08T17:19:46.173Z,89.80
2018-02-08T17:22:20.800Z,89.50
2018-02-08T17:24:54.524Z,89.50
2018-02-08T17:27:28.427Z,89.10
2018-02-08T17:30:02.223Z,89.80
2018-02-08T17:32:36.286Z,90.10
2018-02-08T17:35:09.971Z,90.10
2018-02-08T17:37:43.849Z,90.00
2018-02-08T17:40:17.720Z,90.20
2018-02-08T17:42:51.719Z,90.10
2018-02-08T17:45:25.459Z,90.50
2018-02-08T17:47:59.341Z,90.10
2018-02-08T17:50:33.270Z,90.10
2018-02-08T17:53:07.772Z,89.60
2018-02-08T17:55:41.439Z,89.60
2018-02-08T17:58:16.076Z,89.50
2018-02-08T18:00:50.510Z,89.60
2018-02-08T18:03:25.164Z,89.00
2018-02-08T18:05:59.716Z,89.30
2018-02-08T18:08:34.280Z,88.50
2018-02-08T18:11:08.034Z,88.50
2018-02-08T18:13:41.828Z,88.90
2018-02-08T18:16:15.571Z,88.70
2018-02-08T18:18:49.296Z,88.70
2018-02-08T18:21:23.013Z,88.50
2018-02-08T18:23:57.160Z,88.60
2018-02-08T18:26:31.739Z,88.00
2018-02-08T18:29:05.494Z,88.00
2018-02-08T18:31:39.331Z,87.80
2018-02-08T18:34:13.222Z,87.80
2018-02-08T18:36:47.955Z,87.50
2018-02-08T18:39:21.838Z,87.70
2018-02-08T18:41:57.540Z,88.10
2018-02-08T18:44:31.329Z,87.90
2018-02-08T18:47:05.766Z,88.90
2018-02-08T18:49:39.620Z,88.90
2018-02-08T18:52:13.979Z,89.10
2018-02-08T18:54:48.824Z,89.00
2018-02-08T18:57:22.672Z,88.70
2018-02-08T18:59:56.464Z,89.10
2018-02-08T19:02:30.360Z,89.00
2018-02-08T19:05:04.242Z,88.50
2018-02-08T19:07:37.988Z,87.70
2018-02-08T19:10:11.961Z,88.40
2018-02-08T19:12:45.765Z,88.70
2018-02-08T19:15:19.516Z,88.00
2018-02-08T19:17:53.335Z,87.90
2018-02-08T19:20:27.128Z,87.90
2018-02-08T19:23:00.919Z,87.70
2018-02-08T19:25:34.681Z,88.40
2018-02-08T19:28:08.320Z,87.70
2018-02-08T19:30:42.144Z,87.50
2018-02-08T19:33:15.988Z,87.50
2018-02-08T19:35:51.575Z,87.50
2018-02-08T19:38:25.388Z,87.50
2018-02-08T19:40:59.310Z,87.60
2018-02-08T19:43:32.995Z,87.70
2018-02-08T19:46:07.704Z,87.50
2018-02-08T19:48:41.516Z,87.00
2018-02-08T19:51:15.332Z,87.40
2018-02-08T19:53:49.143Z,87.00
2018-02-08T19:56:22.951Z,87.10
2018-02-08T19:58:56.592Z,87.70
2018-02-08T20:01:30.409Z,87.80
2018-02-08T20:04:04.143Z,87.80
2018-02-08T20:06:38.640Z,87.40
2018-02-08T20:09:13.105Z,87.40
2018-02-08T20:11:46.923Z,87.40
2018-02-08T20:14:26.233Z,88.00
2018-02-08T20:17:00.160Z,88.40
2018-02-08T20:19:33.875Z,88.20
2018-02-08T20:22:07.656Z,88.40
2018-02-08T20:24:42.068Z,88.50
2018-02-08T20:27:16.529Z,88.40
2018-02-08T20:29:50.284Z,88.40
2018-02-08T20:32:24.181Z,88.30
2018-02-08T20:34:57.940Z,88.80
2018-02-08T20:37:31.748Z,88.90
2018-02-08T20:40:06.157Z,88.80
2018-02-08T20:45:40.273Z,88.40
2018-02-08T20:48:14.027Z,88.40
2018-02-08T20:50:47.950Z,88.00
2018-02-08T20:53:21.724Z,87.60
2018-02-08T20:55:55.355Z,88.10
2018-02-08T20:58:29.110Z,88.00
2018-02-08T21:01:03.018Z,87.60
2018-02-08T21:03:36.742Z,87.60
2018-02-08T21:06:11.129Z,87.60
2018-02-08T21:08:46.867Z,87.60
2018-02-08T21:11:20.751Z,87.40
2018-02-08T21:13:54.640Z,87.20
2018-02-08T21:16:28.461Z,87.10
2018-02-08T21:19:03.036Z,87.30
2018-02-08T21:21:36.860Z,87.30
2018-02-08T21:24:10.569Z,86.70
2018-02-08T21:26:44.258Z,86.80
2018-02-08T21:29:17.987Z,86.90
2018-02-08T21:31:52.454Z,87.20
2018-02-08T21:34:26.491Z,87.40
2018-02-08T21:37:00.255Z,87.30
2018-02-08T21:39:34.010Z,87.30
2018-02-08T21:42:08.522Z,87.70
2018-02-08T21:44:42.280Z,87.60
2018-02-08T21:47:16.015Z,87.40
2018-02-08T21:49:49.776Z,87.30
2018-02-08T21:52:23.501Z,88.10
2018-02-08T21:54:57.328Z,87.50
2018-02-08T21:57:31.123Z,87.20
